sensor_id;sensor_type;location;lat;lon;timestamp;P1;durP1;ratioP1;P2;durP2;ratioP2
30539;SDS011;17321;46.312;4.776;2022-08-18T00:00:42;7.97;;;5.35;;
30539;SDS011;17321;46.312;4.776;2022-08-18T00:03:08;9.32;;;6.05;;
30539;SDS011;17321;46.312;4.776;2022-08-18T00:05:35;7.88;;;5.78;;
30539;SDS011;17321;46.312;4.776;2022-08-18T00:08:02;10.65;;;6.93;;
30539;SDS011;17321;46.312;4.776;2022-08-18T00:10:28;6.80;;;5.93;;
30539;SDS011;17321;46.312;4.776;2022-08-18T00:12:54;12.18;;;5.93;;
30539;SDS011;17321;46.312;4.776;2022-08-18T00:15:21;6.45;;;5.68;;
30539;SDS011;17321;46.312;4.776;2022-08-18T00:17:47;5.45;;;4.90;;
30539;SDS011;17321;46.312;4.776;2022-08-18T00:20:15;8.43;;;5.68;;
30539;SDS011;17321;46.312;4.776;2022-08-18T00:22:41;5.90;;;5.38;;
30539;SDS011;17321;46.312;4.776;2022-08-18T00:25:08;5.70;;;5.18;;
30539;SDS011;17321;46.312;4.776;2022-08-18T00:27:35;7.95;;;5.45;;
30539;SDS011;17321;46.312;4.776;2022-08-18T00:30:03;5.78;;;4.88;;
30539;SDS011;17321;46.312;4.776;2022-08-18T00:32:32;6.53;;;5.07;;
30539;SDS011;17321;46.312;4.776;2022-08-18T00:35:03;11.15;;;5.45;;
30539;SDS011;17321;46.312;4.776;2022-08-18T00:37:30;4.68;;;4.10;;
30539;SDS011;17321;46.312;4.776;2022-08-18T00:39:57;7.38;;;5.07;;
30539;SDS011;17321;46.312;4.776;2022-08-18T00:42:24;7.72;;;5.32;;
30539;SDS011;17321;46.312;4.776;2022-08-18T00:44:51;12.05;;;5.78;;
30539;SDS011;17321;46.312;4.776;2022-08-18T00:47:18;7.05;;;5.38;;
30539;SDS011;17321;46.312;4.776;2022-08-18T00:49:44;13.05;;;7.22;;
30539;SDS011;17321;46.312;4.776;2022-08-18T00:52:11;11.05;;;5.45;;
30539;SDS011;17321;46.312;4.776;2022-08-18T00:54:39;9.02;;;5.55;;
30539;SDS011;17321;46.312;4.776;2022-08-18T00:57:06;9.73;;;5.80;;
30539;SDS011;17321;46.312;4.776;2022-08-18T00:59:40;11.20;;;5.95;;
30539;SDS011;17321;46.312;4.776;2022-08-18T01:02:10;7.28;;;6.13;;
30539;SDS011;17321;46.312;4.776;2022-08-18T01:07:08;11.07;;;6.63;;
30539;SDS011;17321;46.312;4.776;2022-08-18T01:09:36;5.55;;;5.05;;
30539;SDS011;17321;46.312;4.776;2022-08-18T01:12:02;9.30;;;5.97;;
30539;SDS011;17321;46.312;4.776;2022-08-18T01:14:29;5.60;;;4.93;;
30539;SDS011;17321;46.312;4.776;2022-08-18T01:16:55;7.07;;;5.30;;
30539;SDS011;17321;46.312;4.776;2022-08-18T01:19:39;11.73;;;5.65;;
30539;SDS011;17321;46.312;4.776;2022-08-18T01:24:50;7.40;;;4.65;;
30539;SDS011;17321;46.312;4.776;2022-08-18T01:27:35;5.70;;;4.97;;
30539;SDS011;17321;46.312;4.776;2022-08-18T01:30:05;7.55;;;4.75;;
30539;SDS011;17321;46.312;4.776;2022-08-18T01:32:34;4.97;;;4.22;;
30539;SDS011;17321;46.312;4.776;2022-08-18T01:35:00;9.32;;;3.85;;
30539;SDS011;17321;46.312;4.776;2022-08-18T01:37:27;5.75;;;3.55;;
30539;SDS011;17321;46.312;4.776;2022-08-18T01:39:53;7.88;;;4.43;;
30539;SDS011;17321;46.312;4.776;2022-08-18T01:42:20;3.53;;;3.22;;
30539;SDS011;17321;46.312;4.776;2022-08-18T01:44:46;4.32;;;3.60;;
30539;SDS011;17321;46.312;4.776;2022-08-18T01:47:15;4.57;;;3.65;;
30539;SDS011;17321;46.312;4.776;2022-08-18T01:49:43;3.60;;;3.30;;
30539;SDS011;17321;46.312;4.776;2022-08-18T01:52:09;4.88;;;3.22;;
30539;SDS011;17321;46.312;4.776;2022-08-18T01:54:36;6.82;;;3.13;;
30539;SDS011;17321;46.312;4.776;2022-08-18T01:57:04;3.53;;;3.22;;
30539;SDS011;17321;46.312;4.776;2022-08-18T01:59:30;3.15;;;2.72;;
30539;SDS011;17321;46.312;4.776;2022-08-18T02:01:56;6.18;;;3.58;;
30539;SDS011;17321;46.312;4.776;2022-08-18T02:04:25;6.35;;;3.00;;
30539;SDS011;17321;46.312;4.776;2022-08-18T02:09:20;3.00;;;2.65;;
30539;SDS011;17321;46.312;4.776;2022-08-18T02:11:46;3.20;;;3.00;;
30539;SDS011;17321;46.312;4.776;2022-08-18T02:14:12;5.22;;;3.00;;
30539;SDS011;17321;46.312;4.776;2022-08-18T02:16:38;3.85;;;2.40;;
30539;SDS011;17321;46.312;4.776;2022-08-18T02:19:04;4.20;;;2.63;;
30539;SDS011;17321;46.312;4.776;2022-08-18T02:21:30;2.70;;;2.50;;
30539;SDS011;17321;46.312;4.776;2022-08-18T02:23:57;2.40;;;2.20;;
30539;SDS011;17321;46.312;4.776;2022-08-18T02:26:23;3.58;;;2.05;;
30539;SDS011;17321;46.312;4.776;2022-08-18T02:28:50;6.40;;;2.60;;
30539;SDS011;17321;46.312;4.776;2022-08-18T02:31:17;2.40;;;2.25;;
30539;SDS011;17321;46.312;4.776;2022-08-18T02:33:44;3.50;;;2.55;;
30539;SDS011;17321;46.312;4.776;2022-08-18T02:36:10;2.80;;;2.22;;
30539;SDS011;17321;46.312;4.776;2022-08-18T02:38:37;2.42;;;2.17;;
30539;SDS011;17321;46.312;4.776;2022-08-18T02:41:04;3.45;;;2.38;;
30539;SDS011;17321;46.312;4.776;2022-08-18T02:43:31;2.42;;;2.10;;
30539;SDS011;17321;46.312;4.776;2022-08-18T02:45:57;3.47;;;2.25;;
30539;SDS011;17321;46.312;4.776;2022-08-18T02:48:24;3.92;;;2.40;;
30539;SDS011;17321;46.312;4.776;2022-08-18T02:51:00;5.75;;;2.55;;
30539;SDS011;17321;46.312;4.776;2022-08-18T02:53:26;6.93;;;2.42;;
30539;SDS011;17321;46.312;4.776;2022-08-18T02:55:53;2.58;;;2.38;;
30539;SDS011;17321;46.312;4.776;2022-08-18T02:58:19;4.40;;;2.97;;
30539;SDS011;17321;46.312;4.776;2022-08-18T03:00:45;3.05;;;2.70;;
30539;SDS011;17321;46.312;4.776;2022-08-18T03:03:11;2.90;;;2.35;;
30539;SDS011;17321;46.312;4.776;2022-08-18T03:05:37;3.10;;;2.05;;
30539;SDS011;17321;46.312;4.776;2022-08-18T03:08:04;3.22;;;2.35;;
30539;SDS011;17321;46.312;4.776;2022-08-18T03:10:30;3.75;;;2.70;;
30539;SDS011;17321;46.312;4.776;2022-08-18T03:12:56;3.65;;;2.70;;
30539;SDS011;17321;46.312;4.776;2022-08-18T03:15:22;5.65;;;2.38;;
30539;SDS011;17321;46.312;4.776;2022-08-18T03:17:48;5.40;;;2.78;;
30539;SDS011;17321;46.312;4.776;2022-08-18T03:20:15;3.03;;;2.67;;
30539;SDS011;17321;46.312;4.776;2022-08-18T03:22:41;3.20;;;2.90;;
30539;SDS011;17321;46.312;4.776;2022-08-18T03:25:08;5.70;;;2.60;;
30539;SDS011;17321;46.312;4.776;2022-08-18T03:27:34;5.22;;;2.60;;
30539;SDS011;17321;46.312;4.776;2022-08-18T03:30:00;3.63;;;2.78;;
30539;SDS011;17321;46.312;4.776;2022-08-18T03:32:28;4.15;;;2.65;;
30539;SDS011;17321;46.312;4.776;2022-08-18T03:34:54;2.97;;;2.50;;
30539;SDS011;17321;46.312;4.776;2022-08-18T03:37:20;3.55;;;2.65;;
30539;SDS011;17321;46.312;4.776;2022-08-18T03:39:47;3.28;;;2.97;;
30539;SDS011;17321;46.312;4.776;2022-08-18T03:42:15;3.65;;;2.58;;
30539;SDS011;17321;46.312;4.776;2022-08-18T03:44:42;2.55;;;2.35;;
30539;SDS011;17321;46.312;4.776;2022-08-18T03:47:08;2.28;;;2.15;;
30539;SDS011;17321;46.312;4.776;2022-08-18T03:49:36;4.78;;;2.95;;
30539;SDS011;17321;46.312;4.776;2022-08-18T03:52:02;3.55;;;2.80;;
30539;SDS011;17321;46.312;4.776;2022-08-18T03:54:29;3.90;;;2.63;;
30539;SDS011;17321;46.312;4.776;2022-08-18T03:56:56;8.50;;;2.40;;
30539;SDS011;17321;46.312;4.776;2022-08-18T03:59:24;5.53;;;2.53;;
30539;SDS011;17321;46.312;4.776;2022-08-18T04:01:51;3.38;;;2.45;;
30539;SDS011;17321;46.312;4.776;2022-08-18T04:04:22;2.92;;;2.72;;
30539;SDS011;17321;46.312;4.776;2022-08-18T04:06:56;5.35;;;2.83;;
30539;SDS011;17321;46.312;4.776;2022-08-18T04:09:23;6.55;;;2.53;;
30539;SDS011;17321;46.312;4.776;2022-08-18T04:11:50;4.20;;;2.42;;
30539;SDS011;17321;46.312;4.776;2022-08-18T04:14:17;3.58;;;2.70;;
30539;SDS011;17321;46.312;4.776;2022-08-18T04:16:43;4.30;;;2.53;;
30539;SDS011;17321;46.312;4.776;2022-08-18T04:19:10;5.13;;;3.00;;
30539;SDS011;17321;46.312;4.776;2022-08-18T04:21:38;5.18;;;2.65;;
30539;SDS011;17321;46.312;4.776;2022-08-18T04:24:06;9.93;;;3.23;;
30539;SDS011;17321;46.312;4.776;2022-08-18T04:26:37;2.97;;;2.67;;
30539;SDS011;17321;46.312;4.776;2022-08-18T04:29:04;3.15;;;2.85;;
30539;SDS011;17321;46.312;4.776;2022-08-18T04:31:30;3.50;;;3.20;;
30539;SDS011;17321;46.312;4.776;2022-08-18T04:33:57;5.40;;;3.30;;
30539;SDS011;17321;46.312;4.776;2022-08-18T04:36:24;4.00;;;3.08;;
30539;SDS011;17321;46.312;4.776;2022-08-18T04:38:50;9.15;;;3.55;;
30539;SDS011;17321;46.312;4.776;2022-08-18T04:41:16;3.10;;;2.90;;
30539;SDS011;17321;46.312;4.776;2022-08-18T04:43:42;4.13;;;3.75;;
30539;SDS011;17321;46.312;4.776;2022-08-18T04:46:09;4.20;;;3.30;;
30539;SDS011;17321;46.312;4.776;2022-08-18T04:48:39;5.40;;;4.90;;
30539;SDS011;17321;46.312;4.776;2022-08-18T04:51:07;6.60;;;4.18;;
30539;SDS011;17321;46.312;4.776;2022-08-18T04:53:34;7.30;;;4.40;;
30539;SDS011;17321;46.312;4.776;2022-08-18T04:56:12;7.85;;;5.32;;
30539;SDS011;17321;46.312;4.776;2022-08-18T04:58:38;5.72;;;4.07;;
30539;SDS011;17321;46.312;4.776;2022-08-18T05:01:05;6.13;;;3.50;;
30539;SDS011;17321;46.312;4.776;2022-08-18T05:03:31;3.58;;;3.28;;
30539;SDS011;17321;46.312;4.776;2022-08-18T05:05:57;5.32;;;3.42;;
30539;SDS011;17321;46.312;4.776;2022-08-18T05:08:24;6.47;;;4.07;;
30539;SDS011;17321;46.312;4.776;2022-08-18T05:10:54;8.55;;;4.05;;
30539;SDS011;17321;46.312;4.776;2022-08-18T05:13:21;4.95;;;3.70;;
30539;SDS011;17321;46.312;4.776;2022-08-18T05:15:52;8.45;;;4.18;;
30539;SDS011;17321;46.312;4.776;2022-08-18T05:18:18;7.88;;;4.50;;
30539;SDS011;17321;46.312;4.776;2022-08-18T05:20:44;5.32;;;4.07;;
30539;SDS011;17321;46.312;4.776;2022-08-18T05:23:11;6.32;;;4.32;;
30539;SDS011;17321;46.312;4.776;2022-08-18T05:25:37;4.18;;;3.63;;
30539;SDS011;17321;46.312;4.776;2022-08-18T05:28:04;4.85;;;4.45;;
30539;SDS011;17321;46.312;4.776;2022-08-18T05:30:30;5.15;;;4.68;;
30539;SDS011;17321;46.312;4.776;2022-08-18T05:32:56;6.13;;;4.78;;
30539;SDS011;17321;46.312;4.776;2022-08-18T05:35:25;5.07;;;4.60;;
30539;SDS011;17321;46.312;4.776;2022-08-18T05:40:37;6.05;;;5.45;;
30539;SDS011;17321;46.312;4.776;2022-08-18T05:43:04;8.90;;;6.05;;
30539;SDS011;17321;46.312;4.776;2022-08-18T05:45:30;8.75;;;5.88;;
30539;SDS011;17321;46.312;4.776;2022-08-18T05:47:59;6.68;;;5.65;;
30539;SDS011;17321;46.312;4.776;2022-08-18T05:50:25;7.80;;;5.78;;
30539;SDS011;17321;46.312;4.776;2022-08-18T05:52:54;9.80;;;6.60;;
30539;SDS011;17321;46.312;4.776;2022-08-18T05:55:25;8.43;;;6.38;;
30539;SDS011;17321;46.312;4.776;2022-08-18T05:58:16;9.65;;;6.55;;
30539;SDS011;17321;46.312;4.776;2022-08-18T06:00:46;11.27;;;7.00;;
30539;SDS011;17321;46.312;4.776;2022-08-18T06:03:21;10.07;;;8.18;;
30539;SDS011;17321;46.312;4.776;2022-08-18T06:05:51;13.40;;;8.80;;
30539;SDS011;17321;46.312;4.776;2022-08-18T06:08:18;10.40;;;8.82;;
30539;SDS011;17321;46.312;4.776;2022-08-18T06:10:48;15.48;;;9.43;;
30539;SDS011;17321;46.312;4.776;2022-08-18T06:13:14;19.10;;;8.48;;
30539;SDS011;17321;46.312;4.776;2022-08-18T06:28:19;13.60;;;7.80;;
30539;SDS011;17321;46.312;4.776;2022-08-18T06:30:48;7.43;;;6.75;;
30539;SDS011;17321;46.312;4.776;2022-08-18T06:35:47;13.13;;;7.80;;
30539;SDS011;17321;46.312;4.776;2022-08-18T06:38:34;9.13;;;6.97;;
30539;SDS011;17321;46.312;4.776;2022-08-18T06:43:31;11.80;;;6.45;;
30539;SDS011;17321;46.312;4.776;2022-08-18T06:45:59;9.10;;;6.53;;
30539;SDS011;17321;46.312;4.776;2022-08-18T06:51:30;9.10;;;7.93;;
30539;SDS011;17321;46.312;4.776;2022-08-18T06:59:14;9.38;;;8.40;;
30539;SDS011;17321;46.312;4.776;2022-08-18T07:01:41;10.05;;;8.18;;
30539;SDS011;17321;46.312;4.776;2022-08-18T07:04:07;8.68;;;7.35;;
30539;SDS011;17321;46.312;4.776;2022-08-18T07:06:33;12.23;;;8.25;;
30539;SDS011;17321;46.312;4.776;2022-08-18T07:11:58;12.18;;;7.68;;
30539;SDS011;17321;46.312;4.776;2022-08-18T07:14:24;13.27;;;8.30;;
30539;SDS011;17321;46.312;4.776;2022-08-18T07:17:04;9.73;;;7.82;;
30539;SDS011;17321;46.312;4.776;2022-08-18T07:19:30;9.52;;;7.30;;
30539;SDS011;17321;46.312;4.776;2022-08-18T07:22:01;9.73;;;8.38;;
30539;SDS011;17321;46.312;4.776;2022-08-18T07:24:32;7.47;;;6.60;;
30539;SDS011;17321;46.312;4.776;2022-08-18T07:27:06;9.82;;;7.28;;
30539;SDS011;17321;46.312;4.776;2022-08-18T07:29:34;10.27;;;6.60;;
30539;SDS011;17321;46.312;4.776;2022-08-18T07:32:07;7.20;;;6.55;;
30539;SDS011;17321;46.312;4.776;2022-08-18T07:34:36;7.22;;;5.97;;
30539;SDS011;17321;46.312;4.776;2022-08-18T07:37:21;7.63;;;5.55;;
30539;SDS011;17321;46.312;4.776;2022-08-18T07:39:50;7.90;;;5.80;;
30539;SDS011;17321;46.312;4.776;2022-08-18T07:45:11;8.05;;;6.28;;
30539;SDS011;17321;46.312;4.776;2022-08-18T07:47:56;12.23;;;6.15;;
30539;SDS011;17321;46.312;4.776;2022-08-18T07:50:24;6.65;;;6.03;;
30539;SDS011;17321;46.312;4.776;2022-08-18T07:55:37;8.38;;;6.30;;
30539;SDS011;17321;46.312;4.776;2022-08-18T08:06:54;9.65;;;6.00;;
30539;SDS011;17321;46.312;4.776;2022-08-18T08:11:51;7.93;;;5.47;;
30539;SDS011;17321;46.312;4.776;2022-08-18T08:17:23;8.45;;;4.93;;
30539;SDS011;17321;46.312;4.776;2022-08-18T08:27:27;9.27;;;5.75;;
30539;SDS011;17321;46.312;4.776;2022-08-18T08:30:06;8.43;;;6.05;;
30539;SDS011;17321;46.312;4.776;2022-08-18T08:32:34;7.35;;;5.82;;
30539;SDS011;17321;46.312;4.776;2022-08-18T08:35:10;12.65;;;5.40;;
30539;SDS011;17321;46.312;4.776;2022-08-18T08:37:40;6.45;;;5.13;;
30539;SDS011;17321;46.312;4.776;2022-08-18T08:45:07;9.25;;;4.85;;
30539;SDS011;17321;46.312;4.776;2022-08-18T08:47:40;6.43;;;5.03;;
30539;SDS011;17321;46.312;4.776;2022-08-18T08:50:08;6.38;;;5.28;;
30539;SDS011;17321;46.312;4.776;2022-08-18T08:52:45;7.28;;;5.63;;
30539;SDS011;17321;46.312;4.776;2022-08-18T08:55:16;8.43;;;5.90;;
30539;SDS011;17321;46.312;4.776;2022-08-18T08:57:50;9.40;;;5.72;;
30539;SDS011;17321;46.312;4.776;2022-08-18T09:00:18;7.15;;;5.40;;
30539;SDS011;17321;46.312;4.776;2022-08-18T09:03:05;6.00;;;5.50;;
30539;SDS011;17321;46.312;4.776;2022-08-18T09:05:38;9.95;;;5.15;;
30539;SDS011;17321;46.312;4.776;2022-08-18T09:23:31;5.20;;;4.30;;
30539;SDS011;17321;46.312;4.776;2022-08-18T09:28:53;5.55;;;3.67;;
30539;SDS011;17321;46.312;4.776;2022-08-18T09:31:20;8.75;;;4.05;;
30539;SDS011;17321;46.312;4.776;2022-08-18T09:33:53;4.40;;;4.00;;
30539;SDS011;17321;46.312;4.776;2022-08-18T09:41:49;5.25;;;3.70;;
30539;SDS011;17321;46.312;4.776;2022-08-18T09:47:02;6.30;;;3.92;;
30539;SDS011;17321;46.312;4.776;2022-08-18T09:54:24;4.47;;;3.90;;
30539;SDS011;17321;46.312;4.776;2022-08-18T09:57:06;4.88;;;3.58;;
30539;SDS011;17321;46.312;4.776;2022-08-18T10:07:55;5.22;;;3.63;;
30539;SDS011;17321;46.312;4.776;2022-08-18T10:10:53;4.85;;;3.10;;
30539;SDS011;17321;46.312;4.776;2022-08-18T10:13:32;5.85;;;3.42;;
30539;SDS011;17321;46.312;4.776;2022-08-18T10:21:16;2.75;;;2.55;;
30539;SDS011;17321;46.312;4.776;2022-08-18T10:23:59;5.55;;;3.60;;
30539;SDS011;17321;46.312;4.776;2022-08-18T10:37:01;3.03;;;2.72;;
30539;SDS011;17321;46.312;4.776;2022-08-18T10:39:41;6.72;;;2.67;;
30539;SDS011;17321;46.312;4.776;2022-08-18T10:44:36;4.88;;;2.72;;
30539;SDS011;17321;46.312;4.776;2022-08-18T10:47:02;3.13;;;2.55;;
30539;SDS011;17321;46.312;4.776;2022-08-18T10:49:29;6.55;;;3.42;;
30539;SDS011;17321;46.312;4.776;2022-08-18T10:52:06;4.45;;;3.20;;
30539;SDS011;17321;46.312;4.776;2022-08-18T10:57:24;4.65;;;3.20;;
30539;SDS011;17321;46.312;4.776;2022-08-18T11:00:07;5.28;;;3.22;;
30539;SDS011;17321;46.312;4.776;2022-08-18T11:05:07;4.75;;;4.00;;
30539;SDS011;17321;46.312;4.776;2022-08-18T11:07:35;5.35;;;3.30;;
30539;SDS011;17321;46.312;4.776;2022-08-18T11:10:13;4.18;;;3.65;;
30539;SDS011;17321;46.312;4.776;2022-08-18T11:15:23;3.97;;;3.03;;
30539;SDS011;17321;46.312;4.776;2022-08-18T11:20:39;7.95;;;3.50;;
30539;SDS011;17321;46.312;4.776;2022-08-18T11:23:11;3.85;;;2.97;;
30539;SDS011;17321;46.312;4.776;2022-08-18T11:25:38;3.70;;;3.40;;
30539;SDS011;17321;46.312;4.776;2022-08-18T11:28:20;3.45;;;3.17;;
30539;SDS011;17321;46.312;4.776;2022-08-18T11:30:48;3.60;;;2.72;;
30539;SDS011;17321;46.312;4.776;2022-08-18T11:33:16;3.13;;;2.83;;
30539;SDS011;17321;46.312;4.776;2022-08-18T11:35:48;15.38;;;3.13;;
30539;SDS011;17321;46.312;4.776;2022-08-18T11:38:15;7.53;;;2.60;;
30539;SDS011;17321;46.312;4.776;2022-08-18T11:40:44;3.65;;;2.55;;
30539;SDS011;17321;46.312;4.776;2022-08-18T11:43:13;2.45;;;2.25;;
30539;SDS011;17321;46.312;4.776;2022-08-18T11:51:16;4.90;;;2.38;;
30539;SDS011;17321;46.312;4.776;2022-08-18T11:53:35;2.90;;;2.40;;
30539;SDS011;17321;46.312;4.776;2022-08-18T12:01:31;5.25;;;2.38;;
30539;SDS011;17321;46.312;4.776;2022-08-18T12:11:55;2.88;;;2.20;;
30539;SDS011;17321;46.312;4.776;2022-08-18T12:14:23;6.10;;;2.55;;
30539;SDS011;17321;46.312;4.776;2022-08-18T12:16:50;2.72;;;2.53;;
30539;SDS011;17321;46.312;4.776;2022-08-18T12:19:19;3.53;;;2.30;;
30539;SDS011;17321;46.312;4.776;2022-08-18T12:21:49;3.50;;;2.20;;
30539;SDS011;17321;46.312;4.776;2022-08-18T12:24:37;3.05;;;2.35;;
30539;SDS011;17321;46.312;4.776;2022-08-18T12:27:02;3.67;;;2.22;;
30539;SDS011;17321;46.312;4.776;2022-08-18T12:29:28;5.45;;;2.38;;
30539;SDS011;17321;46.312;4.776;2022-08-18T12:31:55;3.30;;;3.00;;
30539;SDS011;17321;46.312;4.776;2022-08-18T12:34:22;10.15;;;3.65;;
30539;SDS011;17321;46.312;4.776;2022-08-18T12:36:51;2.67;;;2.40;;
30539;SDS011;17321;46.312;4.776;2022-08-18T12:39:17;4.70;;;2.20;;
30539;SDS011;17321;46.312;4.776;2022-08-18T12:41:43;2.88;;;2.55;;
30539;SDS011;17321;46.312;4.776;2022-08-18T12:44:10;4.53;;;2.28;;
30539;SDS011;17321;46.312;4.776;2022-08-18T12:46:36;5.30;;;2.10;;
30539;SDS011;17321;46.312;4.776;2022-08-18T12:49:02;4.38;;;2.00;;
30539;SDS011;17321;46.312;4.776;2022-08-18T12:51:29;3.03;;;2.10;;
30539;SDS011;17321;46.312;4.776;2022-08-18T12:53:55;2.08;;;1.67;;
30539;SDS011;17321;46.312;4.776;2022-08-18T12:56:26;2.13;;;1.80;;
30539;SDS011;17321;46.312;4.776;2022-08-18T12:58:54;2.33;;;1.90;;
30539;SDS011;17321;46.312;4.776;2022-08-18T13:01:21;32.60;;;2.60;;
30539;SDS011;17321;46.312;4.776;2022-08-18T13:03:49;3.25;;;2.30;;
30539;SDS011;17321;46.312;4.776;2022-08-18T13:06:17;2.58;;;1.98;;
30539;SDS011;17321;46.312;4.776;2022-08-18T13:08:44;4.18;;;2.00;;
30539;SDS011;17321;46.312;4.776;2022-08-18T13:11:10;2.00;;;1.90;;
30539;SDS011;17321;46.312;4.776;2022-08-18T13:13:37;1.60;;;1.33;;
30539;SDS011;17321;46.312;4.776;2022-08-18T13:16:04;3.10;;;1.90;;
30539;SDS011;17321;46.312;4.776;2022-08-18T13:18:31;5.97;;;2.13;;
30539;SDS011;17321;46.312;4.776;2022-08-18T13:20:57;4.30;;;2.00;;
30539;SDS011;17321;46.312;4.776;2022-08-18T13:23:24;7.97;;;2.08;;
30539;SDS011;17321;46.312;4.776;2022-08-18T13:25:51;3.10;;;2.10;;
30539;SDS011;17321;46.312;4.776;2022-08-18T13:28:17;2.58;;;2.08;;
30539;SDS011;17321;46.312;4.776;2022-08-18T13:30:43;2.97;;;1.80;;
30539;SDS011;17321;46.312;4.776;2022-08-18T13:33:10;3.25;;;2.25;;
30539;SDS011;17321;46.312;4.776;2022-08-18T13:35:36;2.13;;;1.92;;
30539;SDS011;17321;46.312;4.776;2022-08-18T13:38:02;1.90;;;1.80;;
30539;SDS011;17321;46.312;4.776;2022-08-18T13:40:29;4.40;;;2.05;;
30539;SDS011;17321;46.312;4.776;2022-08-18T13:42:55;4.32;;;1.88;;
30539;SDS011;17321;46.312;4.776;2022-08-18T13:45:22;3.03;;;2.00;;
30539;SDS011;17321;46.312;4.776;2022-08-18T13:47:48;3.97;;;2.20;;
30539;SDS011;17321;46.312;4.776;2022-08-18T13:50:14;2.70;;;2.17;;
30539;SDS011;17321;46.312;4.776;2022-08-18T13:52:41;3.05;;;1.95;;
30539;SDS011;17321;46.312;4.776;2022-08-18T13:55:09;3.00;;;2.05;;
30539;SDS011;17321;46.312;4.776;2022-08-18T13:57:37;5.63;;;2.33;;
30539;SDS011;17321;46.312;4.776;2022-08-18T14:00:04;5.95;;;2.00;;
30539;SDS011;17321;46.312;4.776;2022-08-18T14:02:31;2.80;;;2.13;;
30539;SDS011;17321;46.312;4.776;2022-08-18T14:04:57;3.78;;;2.13;;
30539;SDS011;17321;46.312;4.776;2022-08-18T14:07:24;3.83;;;2.05;;
30539;SDS011;17321;46.312;4.776;2022-08-18T14:09:50;3.88;;;1.83;;
30539;SDS011;17321;46.312;4.776;2022-08-18T14:12:20;2.72;;;1.70;;
30539;SDS011;17321;46.312;4.776;2022-08-18T14:14:46;2.38;;;1.83;;
30539;SDS011;17321;46.312;4.776;2022-08-18T14:17:12;2.90;;;2.08;;
30539;SDS011;17321;46.312;4.776;2022-08-18T14:19:38;5.05;;;2.05;;
30539;SDS011;17321;46.312;4.776;2022-08-18T14:22:23;7.18;;;2.10;;
30539;SDS011;17321;46.312;4.776;2022-08-18T14:25:08;2.20;;;1.70;;
30539;SDS011;17321;46.312;4.776;2022-08-18T14:27:52;2.72;;;2.08;;
30539;SDS011;17321;46.312;4.776;2022-08-18T14:30:18;3.42;;;1.95;;
30539;SDS011;17321;46.312;4.776;2022-08-18T14:32:45;2.20;;;2.00;;
30539;SDS011;17321;46.312;4.776;2022-08-18T14:35:11;4.13;;;1.70;;
30539;SDS011;17321;46.312;4.776;2022-08-18T14:37:39;2.75;;;1.70;;
30539;SDS011;17321;46.312;4.776;2022-08-18T14:40:06;3.80;;;2.05;;
30539;SDS011;17321;46.312;4.776;2022-08-18T14:42:33;3.33;;;1.73;;
30539;SDS011;17321;46.312;4.776;2022-08-18T14:44:59;4.18;;;1.90;;
30539;SDS011;17321;46.312;4.776;2022-08-18T14:47:25;6.22;;;1.83;;
30539;SDS011;17321;46.312;4.776;2022-08-18T14:49:52;14.10;;;1.65;;
30539;SDS011;17321;46.312;4.776;2022-08-18T14:52:18;2.75;;;1.60;;
30539;SDS011;17321;46.312;4.776;2022-08-18T14:57:13;2.60;;;1.55;;
30539;SDS011;17321;46.312;4.776;2022-08-18T14:59:39;2.58;;;1.80;;
30539;SDS011;17321;46.312;4.776;2022-08-18T15:02:06;8.23;;;1.85;;
30539;SDS011;17321;46.312;4.776;2022-08-18T15:04:34;6.50;;;1.77;;
30539;SDS011;17321;46.312;4.776;2022-08-18T15:07:00;6.25;;;1.88;;
30539;SDS011;17321;46.312;4.776;2022-08-18T15:09:27;4.05;;;1.63;;
30539;SDS011;17321;46.312;4.776;2022-08-18T15:11:57;6.68;;;1.70;;
30539;SDS011;17321;46.312;4.776;2022-08-18T15:14:24;5.57;;;2.00;;
30539;SDS011;17321;46.312;4.776;2022-08-18T15:16:50;2.10;;;2.00;;
30539;SDS011;17321;46.312;4.776;2022-08-18T15:19:17;3.28;;;1.80;;
30539;SDS011;17321;46.312;4.776;2022-08-18T15:21:43;5.32;;;1.60;;
30539;SDS011;17321;46.312;4.776;2022-08-18T15:24:27;6.80;;;1.70;;
30539;SDS011;17321;46.312;4.776;2022-08-18T15:27:12;4.03;;;1.40;;
30539;SDS011;17321;46.312;4.776;2022-08-18T15:29:40;3.75;;;1.60;;
30539;SDS011;17321;46.312;4.776;2022-08-18T15:32:06;1.92;;;1.67;;
30539;SDS011;17321;46.312;4.776;2022-08-18T15:34:33;2.33;;;1.48;;
30539;SDS011;17321;46.312;4.776;2022-08-18T15:36:59;2.53;;;1.70;;
30539;SDS011;17321;46.312;4.776;2022-08-18T15:39:26;1.85;;;1.38;;
30539;SDS011;17321;46.312;4.776;2022-08-18T15:41:52;3.40;;;1.45;;
30539;SDS011;17321;46.312;4.776;2022-08-18T15:44:19;2.97;;;1.55;;
30539;SDS011;17321;46.312;4.776;2022-08-18T15:46:46;1.52;;;1.42;;
30539;SDS011;17321;46.312;4.776;2022-08-18T15:49:12;2.08;;;1.52;;
30539;SDS011;17321;46.312;4.776;2022-08-18T15:51:39;3.97;;;1.67;;
30539;SDS011;17321;46.312;4.776;2022-08-18T15:54:06;4.18;;;1.85;;
30539;SDS011;17321;46.312;4.776;2022-08-18T15:56:33;1.77;;;1.67;;
30539;SDS011;17321;46.312;4.776;2022-08-18T15:59:00;3.22;;;1.70;;
30539;SDS011;17321;46.312;4.776;2022-08-18T16:01:31;4.90;;;1.77;;
30539;SDS011;17321;46.312;4.776;2022-08-18T16:03:59;5.78;;;1.85;;
30539;SDS011;17321;46.312;4.776;2022-08-18T16:06:27;2.83;;;1.67;;
30539;SDS011;17321;46.312;4.776;2022-08-18T16:08:53;2.70;;;1.90;;
30539;SDS011;17321;46.312;4.776;2022-08-18T16:11:20;3.22;;;1.83;;
30539;SDS011;17321;46.312;4.776;2022-08-18T16:13:46;3.00;;;1.85;;
30539;SDS011;17321;46.312;4.776;2022-08-18T16:16:18;3.38;;;2.10;;
30539;SDS011;17321;46.312;4.776;2022-08-18T16:18:44;27.75;;;2.53;;
30539;SDS011;17321;46.312;4.776;2022-08-18T16:21:11;8.25;;;2.45;;
30539;SDS011;17321;46.312;4.776;2022-08-18T16:23:38;11.45;;;3.05;;
30539;SDS011;17321;46.312;4.776;2022-08-18T16:26:05;5.55;;;2.70;;
30539;SDS011;17321;46.312;4.776;2022-08-18T16:28:31;12.93;;;3.35;;
30539;SDS011;17321;46.312;4.776;2022-08-18T16:30:58;14.73;;;3.30;;
30539;SDS011;17321;46.312;4.776;2022-08-18T16:33:24;6.80;;;3.20;;
30539;SDS011;17321;46.312;4.776;2022-08-18T16:35:51;11.02;;;3.08;;
30539;SDS011;17321;46.312;4.776;2022-08-18T16:38:18;5.63;;;3.08;;
30539;SDS011;17321;46.312;4.776;2022-08-18T16:40:44;11.85;;;3.03;;
30539;SDS011;17321;46.312;4.776;2022-08-18T16:43:10;5.90;;;3.42;;
30539;SDS011;17321;46.312;4.776;2022-08-18T16:45:39;3.75;;;2.60;;
30539;SDS011;17321;46.312;4.776;2022-08-18T16:48:07;6.68;;;2.95;;
30539;SDS011;17321;46.312;4.776;2022-08-18T16:50:33;4.05;;;2.75;;
30539;SDS011;17321;46.312;4.776;2022-08-18T16:53:00;3.70;;;2.83;;
30539;SDS011;17321;46.312;4.776;2022-08-18T16:55:26;7.05;;;2.35;;
30539;SDS011;17321;46.312;4.776;2022-08-18T16:57:52;6.07;;;2.90;;
30539;SDS011;17321;46.312;4.776;2022-08-18T17:00:37;4.70;;;2.47;;
30539;SDS011;17321;46.312;4.776;2022-08-18T17:03:22;4.18;;;2.88;;
30539;SDS011;17321;46.312;4.776;2022-08-18T17:06:08;2.83;;;2.35;;
30539;SDS011;17321;46.312;4.776;2022-08-18T17:08:35;5.40;;;2.33;;
30539;SDS011;17321;46.312;4.776;2022-08-18T17:11:02;7.45;;;2.78;;
30539;SDS011;17321;46.312;4.776;2022-08-18T17:13:29;4.38;;;2.80;;
30539;SDS011;17321;46.312;4.776;2022-08-18T17:15:55;3.53;;;2.50;;
30539;SDS011;17321;46.312;4.776;2022-08-18T17:18:22;3.40;;;3.05;;
30539;SDS011;17321;46.312;4.776;2022-08-18T17:20:48;3.05;;;2.65;;
30539;SDS011;17321;46.312;4.776;2022-08-18T17:23:15;9.55;;;2.72;;
30539;SDS011;17321;46.312;4.776;2022-08-18T17:25:42;3.03;;;2.83;;
30539;SDS011;17321;46.312;4.776;2022-08-18T17:28:08;8.65;;;3.25;;
30539;SDS011;17321;46.312;4.776;2022-08-18T17:30:36;5.15;;;2.45;;
30539;SDS011;17321;46.312;4.776;2022-08-18T17:33:07;5.35;;;2.70;;
30539;SDS011;17321;46.312;4.776;2022-08-18T17:35:36;4.10;;;2.90;;